Harrison, NY (10528)

4:45 AM EDT on May 06, 2015 (GMT -0400)
Southern White Plains | | Change Station
CLOSE
Current Station
Personal Weather Station
Location: White Plains, NY
Elevation: 220 ft
Nearby Weather Stations

Elev 220 ft 41.00 °N, 73.74 °W | Updated 3 minutes ago

Overcast
Overcast
64.0 °F
Feels Like 64.0 °F
N
0.0
Wind Variable Wind from ESE
Gusts 1.0 mph

Today
High -- | Low -- °F
--% Chance of Precip.
Yesterday
High -- | Low -- °F
Precip. -- in
5:47 AM 7:56 PM
Waning Gibbous, 95% visible
Pressure 30.18 in
Visibility 10.0 miles
Clouds Mostly Cloudy 11000 ft
Dew Point 43 °F
Humidity 46%
Rainfall 0.00 in
Snow Depth Not available.
UV 0 out of 12
Pollen 10.00 out of 12
Air Quality Not available.
Flu Activity Widespread
METAR KHPN 060756Z 35007KT 10SM BKN110 19/02 A3020 RMK AO2 SLP220 T01890017 $

More Conditions Fewer Conditions

Pressure 30.18 in
Visibility 10.0 miles
Clouds Mostly Cloudy 11000 ft
Dew Point 43 °F
Humidity 46%
Rainfall 0.00 in
Snow Depth Not available.
UV 0 out of 12
Pollen 10.00 out of 12
Air Quality Not available.
Flu Activity Widespread
METAR KHPN 060756Z 35007KT 10SM BKN110 19/02 A3020 RMK AO2 SLP220 T01890017 $

More Conditions Fewer Conditions

10-Day Weather Forecast

Almanac

Astronomy

May. 06, 2015 Rise Set
Actual Time
Civil Twilight
Nautical Twilight
Astronomical Twilight
Moon
Length of Visible Light
Length of Day
Tomorrow will be .
, % of the Moon is Illuminated

Today's Extremes

State Highs State Lows

Community

WunderPhotos

Upload Photos

1,818,857 photos uploaded!

WunderBlogs® & News

Nearby

Air Quality

  Air Quality AQ Index Pollutant
Not available.

Snow Depth

Station Depth Elevation

Earthquake Activity

City Distance Mag. Time & Date
Minimum magnitude displayed is 2.5.

Coastal Water Temperatures

Place Temperature

Stations

Nearby Weather Stations

Station Location Temp. Windchill Dew Point Humidity Wind Precip. Elev Updated Type